Tiempo atmosférico en la estación meteorológica de Cabo de Gata, Almería (42 m.)



Fecha
DESCASC
Temp. máxima en grados centígrados (hora)
DESCASC
Temp. mínima en grados centígrados (hora)
DESCASC
Temp. media en grados centígrados
DESCASC
Racha de viento máxima en m/sg (hora)
DESCASC
Velocidad máxima media en intervalos de 10 minutos(hora)
DESCASC
Precipitaciones diarias en mm
DESCASC
Precipitaciones de 00:00 a 06:00 en mm
DESCASC
Precipitaciones de 06:00 a 12:00 en mm
DESCASC
Precipitaciones de 12:00 a 18:00 en mm
DESCASC
Precipitaciones de 18:00 a 24:00 en mm
DESCASC
20-09-2018 26.7 (11:00) 24 (04:50) 25.4 11.11 (12:40) 8.33 (15:10) 0 0 0 0 0
19-09-2018 27.6 (12:10) 23.3 (07:10) 25.4 8.61 (15:40) 7.22 (15:40) 0 0 0 0 0
18-09-2018 29.2 (13:20) 24 (08:40) 26.6 8.33 (03:00) 4.72 (21:10) 0 0 0 0 0
17-09-2018 28.2 (12:50) 24.9 (07:40) 26.6 18.61 (21:40) 12.78 (15:50) 0 0 0 0 0
16-09-2018 28.3 (16:00) 23.8 (00:00) 26 16.39 (17:20) 10.56 (14:00) 0 0 0 0 0
15-09-2018 27.3 (14:50) 23.2 (00:00) 25.3 15 (17:50) 10 (18:30) 0 0 0 0 0
14-09-2018 27.5 (12:50) 24.4 (00:00) 25.9 15 (15:10) 11.94 (15:20) 0 0 0 0 0
13-09-2018 27.7 (14:40) 23.8 (00:00) 25.8 10.56 (02:20) 6.67 (02:20) 0 0 0 0 0
12-09-2018 29.2 (14:00) 25 (00:00) 27.1 17.22 (00:40) 10.83 (17:40) 0 0 0 0 0
11-09-2018 28.3 (16:10) 24.8 (00:00) 26.5 19.17 (15:00) 11.39 (13:50) 0 0 0 0 0
10-09-2018 27.5 (13:50) 23.1 (00:00) 25.3 18.61 (20:10) 12.5 (20:10) 0 0 0 0 0
09-09-2018 27.2 (16:10) 23.1 (00:00) 25.2 14.72 (13:10) 8.89 (13:00) 12 0.6 0 11.4 0
08-09-2018 27.7 (16:20) 20.7 (00:00) 24.2 23.33 (08:10) 12.78 (07:50) 17.6 0 14.2 0 3.4
07-09-2018 28.6 (14:10) 22.6 (00:00) 25.6 14.72 (20:40) 10.28 (20:20) 0 0 0 0 0
06-09-2018 28.3 (15:40) 22.9 (00:00) 25.6 10 (05:40) 6.94 (05:20) 0 0 0 0 0
05-09-2018 28.1 (11:40) 23.7 (00:00) 25.9 13.61 (07:50) 9.17 (07:30) 0 0 0 0 0
04-09-2018 29 (13:30) 23.3 (00:00) 26.1 7.22 (13:10) 5.83 (13:10) 0 0 0 0 0
03-09-2018 29.9 (15:00) 24.3 (00:00) 27.1 13.89 (01:40) 7.5 (01:20) 0 0 0 0 0
02-09-2018 28.6 (12:40) 24.7 (00:00) 26.7 16.39 (00:10) 10.83 (00:10) 0 0 0 0 0
01-09-2018 29 (15:10) 25.4 (00:00) 27.2 21.39 (12:10) 16.11 (12:10) 0 0 0 0 0
31-08-2018 28.7 (11:40) 25.5 (00:00) 27.1 18.89 (13:50) 13.89 (21:50) 0 0 0 0 0
30-08-2018 28.6 (15:20) 24.8 (00:00) 26.7 18.33 (13:00) 12.5 (18:40) 0 0 0 0 0
29-08-2018 30 (12:40) 24.6 (00:00) 27.3 6.39 (06:00) 4.44 (17:00) 0 0 0 0 0
28-08-2018 30.6 (11:00) 26.3 (00:00) 28.4 18.33 (07:00) 12.78 (01:40) 0 0 0 0 0
27-08-2018 29.2 (15:50) 25.4 (00:00) 27.3 22.5 (12:40) 13.89 (20:40) 0 0 0 0 0
26-08-2018 31.5 (11:30) 26 (00:00) 28.8 17.78 (15:10) 11.94 (14:20) 0 0 0 0 0
25-08-2018 31.7 (15:30) 24.3 (00:00) 28 8.61 (09:20) 6.39 (09:10) 0 0 0 0 0
24-08-2018 29.7 (15:00) 24.7 (00:00) 27.2 7.5 (20:40) 4.72 (23:00) 0 0 0 0 0

Gráficas

Temp. máximas Temp. mínimas Temp. medias Precipitaciones Rachas de viento máximas Velocidades máximas media en intervalos de 10 minutos

Datos horarios

Fecha y hora oficial Temperatura (ºC) Velocidad del viento (km/h) Dirección del viento Racha (km/h) Dirección de racha Precipitación (mm) Presión (hPa) Tendencia (hPa) Humedad (%)
2018-09-22 23:00:00 25.5 2 Sudoeste 14 Noroeste 0 -- -- 52
2018-09-22 22:00:00 25.8 4 Sudoeste 13 Noroeste 0 -- -- 50
2018-09-22 21:00:00 26.5 5 Noroeste 27 Este 0 -- -- 46
2018-09-22 20:00:00 26.2 21 Este 39 Este 0 -- -- 57
2018-09-22 19:00:00 26.3 25 Este 38 Este 0 -- -- 65
2018-09-22 18:00:00 25.9 21 Este 45 Este 0 -- -- 72
2018-09-22 17:00:00 25.6 33 Este 46 Este 0 -- -- 74
2018-09-22 16:00:00 25.9 33 Este 51 Sudeste 0 -- -- 74
2018-09-22 15:00:00 25.7 35 Este 49 Este 0 -- -- 81
2018-09-22 14:00:00 25.9 36 Este 47 Este 0 -- -- 79
2018-09-22 13:00:00 26.1 32 Este 40 Sudeste 0 -- -- 78
2018-09-22 12:00:00 26.2 27 Este 36 Este 0 -- -- 77
2018-09-22 11:00:00 26.4 18 Este 31 Este 0 -- -- 77
2018-09-22 10:00:00 25.3 3 Nordeste 12 Este 0 -- -- 83
2018-09-22 09:00:00 24.1 8 Este 13 Este 0 -- -- 86
2018-09-22 08:00:00 23.5 10 Este 14 Este 0 -- -- 85
2018-09-22 07:00:00 23.7 10 Este 14 Este 0 -- -- 84
2018-09-22 06:00:00 23.6 3 Nordeste 9 Este 0 -- -- 83
2018-09-22 05:00:00 23.6 3 Nordeste 6 Norte 0 -- -- 82
2018-09-22 04:00:00 23.4 7 Norte 10 Norte 0 -- -- 82
2018-09-22 03:00:00 23.9 4 Noroeste 6 Norte 0 -- -- 80
2018-09-22 02:00:00 24.2 0 Calma 4 Norte 0 -- -- 78
2018-09-22 01:00:00 23.9 2 Norte 6 Noroeste 0 -- -- 77
2018-09-22 00:00:00 24.3 4 Oeste 17 Noroeste 0 -- -- 78
2018-09-21 23:00:00 24.2 11 Noroeste 25 Noroeste 0 -- -- 82
2018-09-21 22:00:00 24.8 17 Noroeste 25 Noroeste 0 -- -- 82
2018-09-21 21:00:00 25.1 9 Oeste 18 Oeste 0 -- -- 81
2018-09-21 20:00:00 25.6 12 Oeste 19 Noroeste 0 -- -- 78
2018-09-21 19:00:00 26.2 12 Oeste 19 Oeste 0 -- -- 76
2018-09-21 18:00:00 26.6 7 Oeste 15 Sudoeste 0 -- -- 74
2018-09-21 17:00:00 27.1 6 Oeste 13 Sudoeste 0 -- -- 72
2018-09-21 16:00:00 27.6 5 Sudoeste 12 Sudoeste 0 -- -- 71
2018-09-21 15:00:00 27.5 4 Sudoeste 11 Sur 0 -- -- 71
2018-09-21 14:00:00 28.3 5 Sur 9 Sudeste 0 -- -- 69
2018-09-21 13:00:00 28.2 4 Sur 9 Sudoeste 0 -- -- 72
2018-09-21 12:00:00 27.2 3 Sudoeste 9 Oeste 0 -- -- 78
2018-09-21 11:00:00 25.8 5 Oeste 15 Noroeste 0 -- -- 83
2018-09-21 10:00:00 24.9 5 Oeste 12 Oeste 0 -- -- 86
2018-09-21 09:00:00 23.2 3 Noroeste 10 Norte 0 -- -- 87
2018-09-21 08:00:00 22.7 5 Noroeste 10 Noroeste 0 -- -- 87
2018-09-21 07:00:00 22.9 5 Noroeste 19 Noroeste 0 -- -- 87
2018-09-21 06:00:00 23 9 Norte 15 Norte 0 -- -- 87
2018-09-21 05:00:00 23.6 7 Noroeste 17 Noroeste 0 -- -- 86
2018-09-21 04:00:00 23.3 8 Noroeste 12 Noroeste 0 -- -- 86
2018-09-21 03:00:00 23.7 2 Norte 5 Norte 0 -- -- 85
2018-09-21 02:00:00 23.8 3 Norte 12 Norte 0 -- -- 85
2018-09-21 01:00:00 23.7 5 Norte 10 Norte 0 -- -- 84
2018-09-21 00:00:00 24.1 4 Norte 6 Norte 0 -- -- 83
2018-09-20 23:00:00 24.3 2 Nordeste 12 Sudeste 0 -- -- 83
2018-09-20 22:00:00 24.6 6 Este 19 Este 0 -- -- 83
2018-09-20 21:00:00 24.7 14 Este 21 Este 0 -- -- 82
2018-09-20 20:00:00 25 15 Este 29 Sudeste 0 -- -- 82
2018-09-20 19:00:00 25.1 23 Este 30 Este 0 -- -- 82
2018-09-20 18:00:00 25.2 26 Este 33 Este 0 -- -- 81
2018-09-20 17:00:00 25.6 26 Este 37 Este 0 -- -- 78
2018-09-20 16:00:00 26 27 Este 36 Este 0 -- -- 78
2018-09-20 15:00:00 26.2 29 Este 35 Este 0 -- -- 78
2018-09-20 14:00:00 26.5 26 Este 35 Este 0 -- -- 77
2018-09-20 13:00:00 26.4 27 Este 40 Este 0 -- -- 78
2018-09-20 12:00:00 26.4 27 Este 35 Este 0 -- -- 78
2018-09-20 11:00:00 26.7 23 Este 31 Este 0 -- -- 74
2018-09-20 10:00:00 26.1 12 Este 21 Sudeste 0 -- -- 80
2018-09-20 09:00:00 24.8 5 Nordeste 15 Nordeste 0 -- -- 85
2018-09-20 08:00:00 24.1 9 Nordeste 18 Nordeste 0 -- -- 85
2018-09-20 07:00:00 24.3 6 Nordeste 11 Nordeste 0 -- -- 84
2018-09-20 06:00:00 24.2 5 Nordeste 6 Nordeste 0 -- -- 84
2018-09-20 05:00:00 24 3 Norte 7 Norte 0 -- -- 84
2018-09-20 04:00:00 24.2 3 Norte 8 Norte 0 -- -- 84
2018-09-20 03:00:00 24.5 3 Norte 6 Noroeste 0 -- -- 83
2018-09-20 02:00:00 24.7 4 Noroeste 8 Este 0 -- -- 83
2018-09-20 01:00:00 24.7 0 Calma 8 Nordeste 0 -- -- 83
2018-09-20 00:00:00 24.9 3 Este 12 Este 0 -- -- 83
2018-09-19 23:00:00 25.1 8 Este 18 Nordeste 0 -- -- 83
2018-09-19 22:00:00 25.3 12 Este 22 Nordeste 0 -- -- 83
2018-09-19 21:00:00 25.2 11 Este 24 Este 0 -- -- 83
2018-09-19 20:00:00 25.4 17 Este 30 Este 0 -- -- 83
2018-09-19 19:00:00 25.7 18 Este 24 Este 0 -- -- 83
2018-09-19 18:00:00 25.7 19 Este 25 Este 0 -- -- 81
2018-09-19 17:00:00 25.9 19 Este 26 Este 0 -- -- 80
2018-09-19 16:00:00 26.6 23 Este 31 Este 0 -- -- 79
2018-09-19 15:00:00 26.7 23 Este 29 Sudeste 0 -- -- 79
2018-09-19 14:00:00 27.3 20 Este 26 Este 0 -- -- 77
2018-09-19 13:00:00 27.4 18 Este 25 Este 0 -- -- 77
2018-09-19 12:00:00 27.4 14 Este 21 Este 0 -- -- 79
2018-09-19 11:00:00 27 9 Este 22 Este 0 -- -- 80
2018-09-19 10:00:00 26 10 Este 19 Este 0 -- -- 82
2018-09-19 09:00:00 24.6 0 Calma 10 Norte 0 -- -- 85
2018-09-19 08:00:00 23.5 5 Norte 11 Noroeste 0 -- -- 85
2018-09-19 07:00:00 23.4 6 Noroeste 9 Norte 0 -- -- 85
2018-09-19 06:00:00 23.6 3 Oeste 9 Norte 0 -- -- 85
2018-09-19 05:00:00 23.7 6 Norte 10 Noroeste 0 -- -- 85
2018-09-19 04:00:00 23.9 3 Oeste 6 Norte 0 -- -- 83
2018-09-19 03:00:00 23.8 3 Noroeste 9 Norte 0 -- -- 83
2018-09-19 02:00:00 23.9 4 Noroeste 8 Norte 0 -- -- 82
2018-09-19 01:00:00 24 5 Norte 10 Norte 0 -- -- 82
2018-09-19 00:00:00 24.3 6 Noroeste 18 Noroeste 0 -- -- 83
2018-09-18 23:00:00 24.6 9 Noroeste 19 Noroeste 0 -- -- 84
2018-09-18 22:00:00 25 9 Oeste 21 Oeste 0 -- -- 84
2018-09-18 21:00:00 25.3 14 Oeste 23 Noroeste 0 -- -- 84
2018-09-18 20:00:00 25.5 10 Oeste 19 Oeste 0 -- -- 82
2018-09-18 19:00:00 26.4 9 Oeste 19 Sudoeste 0 -- -- 78
2018-09-18 18:00:00 27.2 8 Oeste 19 Oeste 0 -- -- 76
2018-09-18 17:00:00 27.7 10 Oeste 19 Oeste 0 -- -- 74
2018-09-18 16:00:00 28.2 5 Oeste 16 Oeste 0 -- -- 73
2018-09-18 15:00:00 28.8 5 Oeste 13 Sudoeste 0 -- -- 71
2018-09-18 14:00:00 29 6 Oeste 13 Sudoeste 0 -- -- 70
2018-09-18 13:00:00 28.8 6 Oeste 13 Oeste 0 -- -- 72
2018-09-18 12:00:00 28.4 5 Oeste 14 Oeste 0 -- -- 75
2018-09-18 11:00:00 27.5 8 Oeste 15 Oeste 0 -- -- 77
2018-09-18 10:00:00 26.7 6 Oeste 11 Oeste 0 -- -- 78
2018-09-18 09:00:00 24.4 5 Noroeste 18 Noroeste 0 -- -- 77
2018-09-18 08:00:00 24.3 3 Norte 12 Norte 0 -- -- 75
2018-09-18 07:00:00 24.5 4 Noroeste 12 Noroeste 0 -- -- 74
2018-09-18 06:00:00 24.5 3 Noroeste 10 Este 0 -- -- 75
2018-09-18 05:00:00 25.3 6 Nordeste 17 Noroeste 0 -- -- 73
2018-09-18 04:00:00 25.4 5 Norte 23 Norte 0 -- -- 73
2018-09-18 03:00:00 25.4 13 Norte 30 Norte 0 -- -- 75
2018-09-18 02:00:00 25.5 8 Noroeste 18 Noroeste 0 -- -- 74
2018-09-18 01:00:00 25.7 9 Nordeste 21 Nordeste 0 -- -- 75
2018-09-18 00:00:00 25.7 7 Norte 42 Norte 0 -- -- 76
2018-09-17 23:00:00 25.9 28 Nordeste 57 Nordeste 0 -- -- 76
2018-09-17 22:00:00 25.9 40 Nordeste 67 Este 0 -- -- 76
2018-09-17 21:00:00 25.8 36 Nordeste 60 Nordeste 0 -- -- 76
2018-09-17 20:00:00 26.2 16 Norte 48 Nordeste 0 -- -- 75
2018-09-17 19:00:00 26.6 29 Nordeste 53 Nordeste 0 -- -- 74
2018-09-17 18:00:00 27 36 Este 57 Este 0 -- -- 73
2018-09-17 17:00:00 27.3 41 Este 59 Este 0 -- -- 72
2018-09-17 16:00:00 27.3 46 Este 59 Este 0 -- -- 72
2018-09-17 15:00:00 27.5 42 Este 61 Este 0 -- -- 71
2018-09-17 14:00:00 27.6 42 Este 60 Este 0 -- -- 70
2018-09-17 13:00:00 28.1 31 Este 52 Este 0 -- -- 68
2018-09-17 12:00:00 27.4 40 Este 58 Este 0 -- -- 69
2018-09-17 11:00:00 27 35 Este 53 Este 0 -- -- 71
2018-09-17 10:00:00 26.6 23 Este 46 Nordeste 0 -- -- 72
2018-09-17 09:00:00 25.5 23 Nordeste 46 Este 0 -- -- 74
2018-09-17 08:00:00 25 11 Nordeste 28 Este 0 -- -- 72
2018-09-17 07:00:00 25.2 3 Norte 26 Nordeste 0 -- -- 70
2018-09-17 06:00:00 25.2 10 Nordeste 37 Norte 0 -- -- 71
2018-09-17 05:00:00 25.1 19 Norte 38 Nordeste 0 -- -- 74
2018-09-17 04:00:00 25.2 9 Nordeste 21 Nordeste 0 -- -- 74
2018-09-17 03:00:00 25.2 9 Norte 28 Nordeste 0 -- -- 78
2018-09-17 02:00:00 25.3 11 Nordeste 46 Este 0 -- -- 80
2018-09-17 01:00:00 25.3 21 Nordeste 41 Nordeste 0 -- -- 81
2018-09-17 00:00:00 25.3 19 Nordeste 30 Nordeste 0 -- -- 80
2018-09-16 23:00:00 25.3 15 Nordeste 29 Este 0 -- -- 79
2018-09-16 22:00:00 25.5 15 Nordeste 39 Nordeste 0 -- -- 78
2018-09-16 21:00:00 25.5 24 Nordeste 42 Este 0 -- -- 76
2018-09-16 20:00:00 25.7 25 Nordeste 47 Este 0 -- -- 76
2018-09-16 19:00:00 26 36 Este 51 Nordeste 0 -- -- 73
2018-09-16 18:00:00 26.3 31 Este 59 Sudeste 0 -- -- 71
2018-09-16 17:00:00 26.3 35 Este 56 Este 0 -- -- 71
2018-09-16 16:00:00 28.3 24 Este 53 Este 0 -- -- 62
2018-09-16 15:00:00 27.4 32 Este 53 Este 0 -- -- 63
2018-09-16 14:00:00 27.2 38 Este 54 Este 0 -- -- 62
2018-09-16 13:00:00 27.1 31 Este 54 Este 0 -- -- 62
2018-09-16 12:00:00 27.1 32 Este 42 Este 0 -- -- 63
2018-09-16 11:00:00 26 10 Nordeste 47 Norte 0 -- -- 66
2018-09-16 10:00:00 25.2 10 Noroeste 30 Nordeste 0 -- -- 71
2018-09-16 09:00:00 24.9 16 Nordeste 26 Nordeste 0 -- -- 71
2018-09-16 08:00:00 24.2 6 Norte 21 Noroeste 0 -- -- 72
2018-09-16 07:00:00 24.4 8 Norte 27 Norte 0 -- -- 72
2018-09-16 06:00:00 24.1 14 Norte 26 Norte 0 -- -- 73
2018-09-16 05:00:00 23.8 14 Norte 26 Norte 0 -- -- 75
2018-09-16 04:00:00 24.1 13 Norte 27 Nordeste 0 -- -- 76
2018-09-16 03:00:00 24.3 6 Norte 23 Nordeste 0 -- -- 76
2018-09-16 02:00:00 24.6 10 Norte 36 Nordeste 0 -- -- 77
2018-09-16 01:00:00 24.7 11 Nordeste 29 Este 0 -- -- 78
2018-09-16 00:00:00 24.7 12 Nordeste 27 Este 0 -- -- 77
2018-09-15 23:00:00 24.9 7 Nordeste 39 Nordeste 0 -- -- 76
2018-09-15 22:00:00 25 24 Nordeste 42 Este 0 -- -- 77
2018-09-15 21:00:00 25.2 20 Nordeste 43 Este 0 -- -- 75
2018-09-15 20:00:00 25.2 29 Este 44 Nordeste 0 -- -- 75
2018-09-15 19:00:00 25.3 32 Nordeste 54 Nordeste 0 -- -- 75
2018-09-15 18:00:00 26.1 30 Este 54 Este 0 -- -- 71
2018-09-15 17:00:00 26.6 27 Este 46 Este 0 -- -- 68
2018-09-15 16:00:00 26.5 31 Este 43 Este 0 -- -- 69
2018-09-15 15:00:00 27.3 25 Este 38 Este 0 -- -- 64
2018-09-15 14:00:00 26.8 20 Este 46 Este 0 -- -- 68
2018-09-15 13:00:00 25.8 24 Este 42 Este 0 -- -- 77
2018-09-15 12:00:00 26.9 17 Nordeste 29 Este 0 -- -- 75
2018-09-15 11:00:00 25 19 Nordeste 37 Nordeste 0 -- -- 80
2018-09-15 10:00:00 24.7 23 Nordeste 35 Nordeste 0 -- -- 79
2018-09-15 09:00:00 23.8 19 Norte 34 Norte 0 -- -- 78
2018-09-15 08:00:00 23.8 15 Nordeste 27 Nordeste 0 -- -- 75
2018-09-15 07:00:00 24.3 11 Nordeste 27 Nordeste 0 -- -- 72
2018-09-15 06:00:00 23.5 9 Norte 39 Norte 0 -- -- 74
2018-09-15 05:00:00 23.7 7 Nordeste 38 Este 0 -- -- 77
2018-09-15 04:00:00 24 12 Norte 21 Nordeste 0 -- -- 77
2018-09-15 03:00:00 24.4 18 Este 29 Este 0 -- -- 78
2018-09-15 02:00:00 24.3 11 Nordeste 25 Norte 0 -- -- 78
2018-09-15 01:00:00 24 8 Norte 27 Norte 0 -- -- 75
2018-09-15 00:00:00 24.9 12 Nordeste 35 Este 0 -- -- 80
2018-09-14 23:00:00 25.1 14 Este 30 Este 0 -- -- 80
2018-09-14 22:00:00 25.1 2 Noroeste 21 Nordeste 0 -- -- 80
2018-09-14 21:00:00 24.9 16 Este 35 Este 0 -- -- 81
2018-09-14 20:00:00 25 27 Este 41 Sudeste 0 -- -- 83
2018-09-14 19:00:00 25.5 32 Este 46 Este 0 -- -- 81
2018-09-14 18:00:00 26 26 Este 50 Este 0 -- -- 76
2018-09-14 17:00:00 26.6 31 Este 51 Este 0 -- -- 70
2018-09-14 16:00:00 27 31 Este 54 Este 0 -- -- 71
2018-09-14 15:00:00 27.1 37 Este 49 Este 0 -- -- 69
2018-09-14 14:00:00 27.2 28 Este 50 Este 0 -- -- 70
2018-09-14 13:00:00 27.1 33 Este 47 Este 0 -- -- 69
2018-09-14 12:00:00 27.2 19 Este 39 Este 0 -- -- 73
2018-09-14 11:00:00 26.1 20 Este 31 Este 0 -- -- 78
2018-09-14 10:00:00 25.5 5 Este 19 Nordeste 0 -- -- 81
2018-09-14 09:00:00 24.8 5 Nordeste 19 Nordeste 0 -- -- 82
2018-09-14 08:00:00 24.7 14 Nordeste 24 Nordeste 0 -- -- 83
2018-09-14 07:00:00 24.6 5 Norte 16 Este 0 -- -- 83
2018-09-14 06:00:00 24.7 5 Este 14 Sudeste 0 -- -- 83
2018-09-14 05:00:00 24.5 10 Noroeste 17 Noroeste 0 -- -- 83
2018-09-14 04:00:00 24.9 7 Oeste 13 Noroeste 0 -- -- 82
2018-09-14 03:00:00 25.2 8 Oeste 21 Este 0 -- -- 80
2018-09-14 02:00:00 25.4 9 Nordeste 18 Nordeste 0 -- -- 77
2018-09-14 01:00:00 25 6 Este 13 Este 0 -- -- 74
2018-09-14 00:00:00 25.1 0 Calma 6 Este 0 -- -- 74
2018-09-13 23:00:00 24.8 3 Este 8 Norte 0 -- -- 72
2018-09-13 22:00:00 24.6 0 Calma 9 Este 0 -- -- 76
2018-09-13 21:00:00 25.3 2 Oeste 8 Sudeste 0 -- -- 81
2018-09-13 20:00:00 25.1 3 Oeste 22 Noroeste 0 -- -- 82
2018-09-13 19:00:00 25.4 11 Oeste 26 Noroeste 0 -- -- 81
2018-09-13 18:00:00 26.1 14 Oeste 20 Oeste 0 -- -- 78
2018-09-13 17:00:00 26.7 10 Oeste 19 Oeste 0 -- -- 76
2018-09-13 16:00:00 27.1 4 Oeste 21 Oeste 0 -- -- 75
2018-09-13 15:00:00 27.5 14 Oeste 21 Oeste 0 -- -- 74
2018-09-13 14:00:00 27 4 Oeste 12 Sur 0 -- -- 78
2018-09-13 13:00:00 27.1 5 Oeste 14 Oeste 0 -- -- 80
2018-09-13 12:00:00 26.3 9 Oeste 17 Oeste 0 -- -- 84
2018-09-13 11:00:00 25.5 10 Oeste 16 Oeste 0 -- -- 86
2018-09-13 10:00:00 24.9 9 Noroeste 21 Noroeste 0 -- -- 88
2018-09-13 09:00:00 24.4 17 Noroeste 23 Noroeste 0 -- -- 87
2018-09-13 08:00:00 24.2 6 Oeste 15 Noroeste 0 -- -- 86
2018-09-13 07:00:00 24.1 8 Oeste 26 Noroeste 0 -- -- 86
2018-09-13 06:00:00 24.2 19 Noroeste 26 Noroeste 0 -- -- 85
2018-09-13 05:00:00 24.5 12 Oeste 17 Oeste 0 -- -- 84
2018-09-13 04:00:00 24.6 5 Oeste 17 Noroeste 0 -- -- 82
2018-09-13 03:00:00 24.6 12 Noroeste 38 Noroeste 0 -- -- 81
2018-09-13 02:00:00 24.7 19 Noroeste 31 Noroeste 0 -- -- 81
2018-09-13 01:00:00 24.6 13 Noroeste 23 Noroeste 0 -- -- 82
2018-09-13 00:00:00 25 13 Noroeste 18 Noroeste 0 -- -- 82
2018-09-12 23:00:00 25.1 7 Noroeste 10 Oeste 0 -- -- 81
2018-09-12 22:00:00 25.3 3 Oeste 18 Sudoeste 0 -- -- 80
2018-09-12 21:00:00 25.7 9 Oeste 21 Noroeste 0 -- -- 79
2018-09-12 20:00:00 26.6 8 Oeste 30 Este 0 -- -- 76
2018-09-12 19:00:00 26.9 20 Este 35 Este 0 -- -- 74
2018-09-12 18:00:00 26.9 30 Este 53 Este 0 -- -- 74
2018-09-12 17:00:00 27.7 35 Este 54 Este 0 -- -- 72
2018-09-12 16:00:00 28 37 Este 49 Este 0 -- -- 70
2018-09-12 15:00:00 28.6 27 Este 47 Nordeste 0 -- -- 67
2018-09-12 14:00:00 29.2 24 Nordeste 45 Este 0 -- -- 67
2018-09-12 13:00:00 28.8 24 Nordeste 45 Nordeste 0 -- -- 69
2018-09-12 12:00:00 27.9 27 Nordeste 49 Este 0 -- -- 73
2018-09-12 11:00:00 26.5 33 Nordeste 57 Nordeste 0 -- -- 77
2018-09-12 10:00:00 26 39 Este 59 Este 0 -- -- 77
2018-09-12 09:00:00 25.7 6 Nordeste 44 Norte 0 -- -- 76
2018-09-12 08:00:00 25.5 16 Norte 39 Norte 0 -- -- 77
2018-09-12 07:00:00 25.4 8 Norte 31 Nordeste 0 -- -- 77
2018-09-12 06:00:00 25.5 18 Norte 40 Norte 0 -- -- 79
2018-09-12 05:00:00 25.6 18 Nordeste 46 Nordeste 0 -- -- 80
2018-09-12 04:00:00 25.7 31 Nordeste 44 Este 0 -- -- 80
2018-09-12 03:00:00 25.7 21 Nordeste 43 Nordeste 0 -- -- 79
2018-09-12 02:00:00 25.6 25 Nordeste 49 Nordeste 0 -- -- 79
2018-09-12 01:00:00 25.7 32 Nordeste 62 Nordeste 0 -- -- 79
2018-09-12 00:00:00 26.1 31 Nordeste 54 Nordeste 0 -- -- 75
2018-09-11 23:00:00 26.4 22 Nordeste 48 Este 0 -- -- 73
2018-09-11 22:00:00 26.3 16 Nordeste 38 Este 0 -- -- 73
2018-09-11 21:00:00 26.2 18 Nordeste 51 Nordeste 0 -- -- 74
2018-09-11 20:00:00 26.6 24 Nordeste 48 Nordeste 0 -- -- 73
2018-09-11 19:00:00 27.1 30 Nordeste 59 Nordeste 0 -- -- 71
2018-09-11 18:00:00 27.4 26 Nordeste 59 Este 0 -- -- 68
2018-09-11 17:00:00 27.8 37 Nordeste 66 Nordeste 0 -- -- 69
2018-09-11 16:00:00 28.2 36 Nordeste 64 Nordeste 0 -- -- 66
2018-09-11 15:00:00 27.7 36 Nordeste 69 Nordeste 0 -- -- 66
2018-09-11 14:00:00 26.8 38 Nordeste 68 Nordeste 0 -- -- 68
2018-09-11 13:00:00 27.1 37 Nordeste 63 Nordeste 0 -- -- 67
2018-09-11 12:00:00 26.3 31 Nordeste 54 Este 0 -- -- 67
2018-09-11 11:00:00 26.5 25 Nordeste 51 Este 0 -- -- 67
2018-09-11 10:00:00 26.2 19 Nordeste 42 Nordeste 0 -- -- 68
2018-09-11 09:00:00 24.9 15 Norte 48 Este 0 -- -- 71
2018-09-11 08:00:00 25 11 Norte 49 Nordeste 0 -- -- 71
2018-09-11 07:00:00 25.1 23 Nordeste 45 Norte 0 -- -- 70
2018-09-11 06:00:00 25.1 19 Nordeste 51 Nordeste 0 -- -- 70
2018-09-11 05:00:00 25.1 23 Nordeste 49 Nordeste 0 -- -- 69
2018-09-11 04:00:00 24.9 22 Nordeste 44 Norte 0 -- -- 70
2018-09-11 03:00:00 24.9 18 Nordeste 39 Este 0 -- -- 70
2018-09-11 02:00:00 25.1 16 Nordeste 40 Norte 0 -- -- 71
2018-09-11 01:00:00 25.1 18 Nordeste 41 Este 0 -- -- 75
2018-09-11 00:00:00 25.2 20 Nordeste 46 Norte 0 -- -- 77
2018-09-10 23:00:00 25.3 22 Nordeste 60 Nordeste 0 -- -- 77
2018-09-10 22:00:00 25.4 24 Nordeste 59 Nordeste 0 -- -- 77
2018-09-10 21:00:00 25.4 24 Nordeste 67 Nordeste 0 -- -- 77
2018-09-10 20:00:00 25.6 39 Nordeste 65 Este 0 -- -- 75
2018-09-10 19:00:00 26.3 37 Este 66 Nordeste 0 -- -- 71
2018-09-10 18:00:00 26.7 22 Este 51 Nordeste 0 -- -- 64
2018-09-10 17:00:00 27.1 27 Nordeste 55 Nordeste 0 -- -- 64
2018-09-10 16:00:00 27.2 26 Este 64 Nordeste 0 -- -- 61
2018-09-10 15:00:00 26.8 38 Este 60 Nordeste 0 -- -- 65
2018-09-10 14:00:00 27.5 32 Este 48 Este 0 -- -- 65
2018-09-10 13:00:00 26.9 21 Nordeste 56 Este 0 -- -- 65
2018-09-10 12:00:00 26.5 24 Este 42 Este 0 -- -- 66
2018-09-10 11:00:00 26.1 21 Este 38 Este 0 -- -- 69
2018-09-10 10:00:00 26.1 15 Este 26 Nordeste 0 -- -- 69
2018-09-10 09:00:00 25.4 6 Nordeste 28 Norte 0 -- -- 70
2018-09-10 08:00:00 24 15 Norte 33 Norte 0 -- -- 72
2018-09-10 07:00:00 24.2 11 Norte 27 Norte 0 -- -- 75
2018-09-10 06:00:00 23.5 17 Norte 24 Norte 0 -- -- 79
2018-09-10 05:00:00 23.7 12 Norte 19 Norte 0 -- -- 81
2018-09-10 04:00:00 23.1 9 Norte 17 Norte 0 -- -- 84
2018-09-10 03:00:00 23.4 10 Norte 13 Norte 0 -- -- 83
2018-09-10 02:00:00 23.7 9 Norte 13 Norte 0 -- -- 81
2018-09-10 01:00:00 24.6 7 Norte 14 Nordeste 0 -- -- 78
2018-09-10 00:00:00 24.9 6 Nordeste 8 Nordeste 0 -- -- 76
2018-09-09 23:00:00 24.5 5 Nordeste 10 Sudeste 0 -- -- 74
2018-09-09 22:00:00 24.8 10 Nordeste 16 Nordeste 0 -- -- 72
2018-09-09 21:00:00 25 6 Norte 26 Nordeste 0 -- -- 69
2018-09-09 20:00:00 25.2 20 Nordeste 40 Nordeste 0 -- -- 69
2018-09-09 19:00:00 25 21 Nordeste 48 Nordeste 0 -- -- 75
2018-09-09 18:00:00 24.9 23 Este 37 Nordeste 1.8 -- -- 72
2018-09-09 17:00:00 26.2 9 Nordeste 34 Nordeste 0 -- -- 68
2018-09-09 16:00:00 26.9 20 Norte 41 Noroeste 0 -- -- 68
2018-09-09 15:00:00 25.7 24 Nordeste 44 Este 0 -- -- 74
2018-09-09 14:00:00 24 26 Este 53 Nordeste 8.6 -- -- 75
2018-09-09 13:00:00 24.4 32 Nordeste 47 Nordeste 1 -- -- 72
2018-09-09 12:00:00 25.3 20 Norte 37 Nordeste 0 -- -- 64
2018-09-09 11:00:00 25.1 18 Nordeste 33 Nordeste 0 -- -- 65
2018-09-09 10:00:00 24.8 17 Norte 27 Norte 0 -- -- 68
2018-09-09 09:00:00 24 13 Noroeste 21 Noroeste 0 -- -- 71
2018-09-09 08:00:00 23.3 8 Norte 16 Noroeste 0 -- -- 70
2018-09-09 07:00:00 23.8 3 Noroeste 22 Nordeste 0 -- -- 68
2018-09-09 06:00:00 24.1 13 Nordeste 19 Nordeste 0 -- -- 68
2018-09-09 05:00:00 23.7 5 Oeste 17 Este 0 -- -- 66
2018-09-09 04:00:00 23.5 9 Norte 32 Norte 0 -- -- 68
2018-09-09 03:00:00 23.8 13 Norte 31 Nordeste 0 -- -- 71
2018-09-09 02:00:00 24 18 Norte 36 Norte 0 -- -- 72
2018-09-09 01:00:00 23.7 5 Nordeste 25 Este 0.6 -- -- 74
2018-09-09 00:00:00 24 17 Norte 49 Este 2.4 -- -- 73
2018-09-08 23:00:00 24.4 22 Nordeste 38 Nordeste 1 -- -- 67
2018-09-08 22:00:00 25.4 12 Nordeste 38 Nordeste 0 -- -- 60
2018-09-08 21:00:00 25.2 20 Nordeste 48 Nordeste 0 -- -- 68
2018-09-08 20:00:00 25.6 26 Nordeste 51 Este 0 -- -- 66
2018-09-08 19:00:00 26.1 33 Nordeste 48 Este 0 -- -- 64
2018-09-08 18:00:00 26.9 27 Este 52 Nordeste 0 -- -- 59
2018-09-08 17:00:00 27.3 25 Nordeste 52 Este 0 -- -- 56
2018-09-08 16:00:00 27.4 23 Nordeste 47 Este 0 -- -- 57
2018-09-08 15:00:00 26.3 10 Norte 49 Nordeste 0 -- -- 63
2018-09-08 14:00:00 25 32 Nordeste 57 Nordeste 0 -- -- 67
2018-09-08 13:00:00 24.1 23 Norte 62 Nordeste 0 -- -- 70
2018-09-08 12:00:00 24.7 35 Nordeste 69 Nordeste 0 -- -- 66
2018-09-08 11:00:00 22.3 43 Nordeste 70 Nordeste 0 -- -- 76
2018-09-08 10:00:00 21 25 Norte 55 Noroeste 0.8 -- -- 81
2018-09-08 09:00:00 20.8 35 Noroeste 84 Noroeste 13 -- -- 83
2018-09-08 08:00:00 22.9 44 Oeste 73 Oeste 0.4 -- -- 74
2018-09-08 07:00:00 24.8 34 Nordeste 79 Nordeste 0 -- -- 71
2018-09-08 06:00:00 24.7 41 Nordeste 80 Nordeste 0 -- -- 71
2018-09-08 05:00:00 24.8 37 Nordeste 55 Nordeste 0 -- -- 70
2018-09-08 04:00:00 24.9 33 Nordeste 54 Nordeste 0 -- -- 69
2018-09-08 03:00:00 24.7 20 Nordeste 49 Este 0 -- -- 72
2018-09-08 02:00:00 24.7 22 Nordeste 50 Nordeste 0 -- -- 73
2018-09-08 01:00:00 24.9 23 Nordeste 44 Nordeste 0 -- -- 73
2018-09-08 00:00:00 25 25 Nordeste 50 Este 0 -- -- 71
2018-09-07 23:00:00 25.3 28 Nordeste 46 Nordeste 0 -- -- 65
2018-09-07 22:00:00 25.3 26 Nordeste 45 Este 0 -- -- 61
2018-09-07 21:00:00 25.6 27 Nordeste 53 Este 0 -- -- 55
2018-09-07 20:00:00 25.9 32 Este 46 Este 0 -- -- 54
2018-09-07 19:00:00 25.5 24 Este 44 Este 0 -- -- 61
2018-09-07 18:00:00 24.9 30 Este 40 Este 0 -- -- 71
2018-09-07 17:00:00 25.3 22 Este 35 Sudeste 0 -- -- 70
2018-09-07 16:00:00 26.4 21 Este 26 Sudeste 0 -- -- 65
2018-09-07 15:00:00 28.4 8 Sudeste 14 Este 0 -- -- 62
2018-09-07 14:00:00 28.3 6 Sudeste 11 Este 0 -- -- 61
2018-09-07 13:00:00 27.7 8 Este 14 Sudeste 0 -- -- 65
2018-09-07 12:00:00 26.7 4 Norte 13 Este 0 -- -- 69
2018-09-07 11:00:00 26.3 3 Sudoeste 7 Noroeste 0 -- -- 74
2018-09-07 10:00:00 24.8 3 Oeste 6 Oeste 0 -- -- 82
2018-09-07 09:00:00 23.5 2 Sudoeste 8 Noroeste 0 -- -- 84
2018-09-07 08:00:00 22.9 3 Sur 10 Noroeste 0 -- -- 84
2018-09-07 07:00:00 23.2 5 Oeste 15 Oeste 0 -- -- 84
2018-09-07 06:00:00 23.3 12 Oeste 17 Noroeste 0 -- -- 84
2018-09-07 05:00:00 23.6 11 Oeste 20 Oeste 0 -- -- 84
2018-09-07 04:00:00 23.7 11 Oeste 22 Oeste 0 -- -- 83
2018-09-07 03:00:00 23.7 14 Oeste 24 Oeste 0 -- -- 83
2018-09-07 02:00:00 23.8 6 Sudeste 19 Sudoeste 0 -- -- 83
2018-09-07 01:00:00 23.9 10 Oeste 21 Oeste 0 -- -- 83
2018-09-07 00:00:00 24.1 6 Sur 16 Sudoeste 0 -- -- 83
2018-09-06 23:00:00 24.1 7 Sur 18 Sur 0 -- -- 82
2018-09-06 22:00:00 24.2 9 Sur 22 Sur 0 -- -- 79
2018-09-06 21:00:00 24.7 5 Sur 16 Oeste 0 -- -- 74
2018-09-06 20:00:00 24.9 5 Sudoeste 17 Noroeste 0 -- -- 73
2018-09-06 19:00:00 25.6 9 Oeste 26 Noroeste 0 -- -- 70
2018-09-06 18:00:00 26 15 Oeste 23 Noroeste 0 -- -- 67
2018-09-06 17:00:00 26.9 14 Oeste 28 Oeste 0 -- -- 66
2018-09-06 16:00:00 28.1 19 Oeste 27 Oeste 0 -- -- 64
2018-09-06 15:00:00 27.9 11 Oeste 23 Sudoeste 0 -- -- 67
2018-09-06 14:00:00 27.8 6 Oeste 18 Oeste 0 -- -- 67
2018-09-06 13:00:00 27.8 8 Oeste 18 Oeste 0 -- -- 68
2018-09-06 12:00:00 26.6 5 Oeste 13 Sudoeste 0 -- -- 73
2018-09-06 11:00:00 25.9 5 Sur 14 Oeste 0 -- -- 77
2018-09-06 10:00:00 24.6 11 Oeste 20 Oeste 0 -- -- 82
2018-09-06 09:00:00 23.8 16 Oeste 27 Noroeste 0 -- -- 84
2018-09-06 08:00:00 22.9 18 Oeste 33 Oeste 0 -- -- 85
2018-09-06 07:00:00 23.1 18 Oeste 33 Oeste 0 -- -- 85
2018-09-06 06:00:00 23.2 23 Noroeste 36 Noroeste 0 -- -- 84
2018-09-06 05:00:00 23.9 15 Oeste 29 Noroeste 0 -- -- 84
2018-09-06 04:00:00 23.8 21 Oeste 28 Oeste 0 -- -- 84
2018-09-06 03:00:00 24 22 Oeste 31 Oeste 0 -- -- 83
2018-09-06 02:00:00 24.1 20 Oeste 33 Oeste 0 -- -- 84
2018-09-06 01:00:00 24 17 Oeste 33 Sudoeste 0 -- -- 84
2018-09-06 00:00:00 24.1 9 Sudoeste 26 Oeste 0 -- -- 83
2018-09-05 23:00:00 24.4 8 Sudoeste 25 Oeste 0 -- -- 82
2018-09-05 22:00:00 24.5 16 Oeste 29 Noroeste 0 -- -- 79
2018-09-05 21:00:00 24.4 12 Oeste 31 Oeste 0 -- -- 77
2018-09-05 20:00:00 24.5 14 Oeste 34 Sudoeste 0 -- -- 74
2018-09-05 19:00:00 25 8 Oeste 28 Sudoeste 0 -- -- 72
2018-09-05 18:00:00 25.1 12 Oeste 30 Sudoeste 0 -- -- 72
2018-09-05 17:00:00 26 9 Oeste 26 Oeste 0 -- -- 70
2018-09-05 16:00:00 26.2 10 Sur 23 Sudoeste 0 -- -- 71
2018-09-05 15:00:00 25.8 14 Sudeste 26 Sur 0 -- -- 70
2018-09-05 14:00:00 26.6 10 Sudeste 28 Sudoeste 0 -- -- 67
2018-09-05 13:00:00 26.9 10 Sur 26 Sudoeste 0 -- -- 68
2018-09-05 12:00:00 27.8 6 Sudoeste 20 Sudoeste 0 -- -- 68
2018-09-05 11:00:00 27.1 9 Oeste 26 Noroeste 0 -- -- 72
2018-09-05 10:00:00 25.5 18 Noroeste 28 Noroeste 0 -- -- 77
2018-09-05 09:00:00 24.2 19 Noroeste 45 Noroeste 0 -- -- 78
2018-09-05 08:00:00 24 26 Noroeste 49 Noroeste 0 -- -- 77
2018-09-05 07:00:00 24.2 26 Noroeste 39 Noroeste 0 -- -- 81
2018-09-05 06:00:00 24.4 23 Oeste 37 Noroeste 0 -- -- 80
2018-09-05 05:00:00 24.3 13 Oeste 31 Sudoeste 0 -- -- 80
2018-09-05 04:00:00 24.5 10 Oeste 29 Oeste 0 -- -- 80
2018-09-05 03:00:00 24.6 11 Oeste 25 Sudoeste 0 -- -- 80
2018-09-05 02:00:00 24.7 14 Oeste 31 Oeste 0 -- -- 79
2018-09-05 01:00:00 24.9 20 Oeste 26 Oeste 0 -- -- 78
2018-09-05 00:00:00 24.8 15 Oeste 22 Sudoeste 0 -- -- 77
2018-09-04 23:00:00 24.7 6 Oeste 16 Sudoeste 0 -- -- 76
2018-09-04 22:00:00 24.8 5 Oeste 18 Oeste 0 -- -- 75
2018-09-04 21:00:00 25.2 13 Oeste 24 Oeste 0 -- -- 73
2018-09-04 20:00:00 25.8 14 Oeste 24 Oeste 0 -- -- 71
2018-09-04 19:00:00 26.3 15 Oeste 24 Oeste 0 -- -- 70
2018-09-04 18:00:00 26.7 13 Oeste 24 Oeste 0 -- -- 69
2018-09-04 17:00:00 27.6 12 Oeste 25 Oeste 0 -- -- 67
2018-09-04 16:00:00 27.8 10 Oeste 23 Oeste 0 -- -- 67
2018-09-04 15:00:00 28 8 Sudoeste 21 Oeste 0 -- -- 65
2018-09-04 14:00:00 29 6 Oeste 26 Oeste 0 -- -- 67
2018-09-04 13:00:00 28.8 15 Oeste 23 Oeste 0 -- -- 70
2018-09-04 12:00:00 27.9 13 Oeste 22 Oeste 0 -- -- 73
2018-09-04 11:00:00 27.1 14 Oeste 21 Oeste 0 -- -- 77
2018-09-04 10:00:00 25.7 15 Oeste 23 Noroeste 0 -- -- 82
2018-09-04 09:00:00 24.1 6 Noroeste 12 Noroeste 0 -- -- 86
2018-09-04 08:00:00 23.3 6 Noroeste 12 Norte 0 -- -- 86
2018-09-04 07:00:00 23.7 10 Norte 18 Noroeste 0 -- -- 84
2018-09-04 06:00:00 24.2 10 Noroeste 21 Noroeste 0 -- -- 84
2018-09-04 05:00:00 24.3 8 Oeste 15 Oeste 0 -- -- 84
2018-09-04 04:00:00 24.3 10 Oeste 17 Oeste 0 -- -- 84
2018-09-04 03:00:00 24.5 11 Oeste 18 Noroeste 0 -- -- 84
2018-09-04 02:00:00 24.7 12 Oeste 18 Noroeste 0 -- -- 83
2018-09-04 01:00:00 24.8 11 Oeste 19 Oeste 0 -- -- 82
2018-09-04 00:00:00 25 9 Oeste 15 Oeste 0 -- -- 82
2018-09-03 23:00:00 25.5 9 Oeste 16 Oeste 0 -- -- 82
2018-09-03 22:00:00 26 7 Oeste 11 Oeste 0 -- -- 80
2018-09-03 21:00:00 26.1 7 Oeste 12 Noroeste 0 -- -- 79
2018-09-03 20:00:00 26.2 3 Oeste 11 Sudoeste 0 -- -- 79
2018-09-03 19:00:00 26.6 5 Sur 11 Sur 0 -- -- 79
2018-09-03 18:00:00 27.2 6 Sudeste 12 Este 0 -- -- 76
2018-09-03 17:00:00 28.6 4 Sudoeste 16 Oeste 0 -- -- 71
2018-09-03 16:00:00 29.6 8 Oeste 21 Oeste 0 -- -- 70
2018-09-03 15:00:00 29.9 13 Oeste 23 Oeste 0 -- -- 70
2018-09-03 14:00:00 29.1 12 Oeste 23 Oeste 0 -- -- 73
2018-09-03 13:00:00 28.3 14 Oeste 21 Noroeste 0 -- -- 77
2018-09-03 12:00:00 27.9 14 Oeste 26 Noroeste 0 -- -- 80
2018-09-03 11:00:00 26.3 8 Oeste 13 Noroeste 0 -- -- 84
2018-09-03 10:00:00 25.3 6 Noroeste 11 Noroeste 0 -- -- 86
2018-09-03 09:00:00 24.8 5 Oeste 8 Noroeste 0 -- -- 86
2018-09-03 08:00:00 24.5 8 Noroeste 15 Noroeste 0 -- -- 86
2018-09-03 07:00:00 24.5 6 Norte 17 Oeste 0 -- -- 86
2018-09-03 06:00:00 25 9 Oeste 16 Noroeste 0 -- -- 86
2018-09-03 05:00:00 25 0 Calma 6 Sudeste 0 -- -- 86
2018-09-03 04:00:00 24.9 4 Nordeste 20 Oeste 0 -- -- 86
2018-09-03 03:00:00 25.4 10 Oeste 26 Oeste 0 -- -- 86
2018-09-03 02:00:00 25.5 16 Oeste 50 Noroeste 0 -- -- 85
2018-09-03 01:00:00 25.5 4 Sudeste 35 Noroeste 0 -- -- 85
2018-09-03 00:00:00 25.7 20 Norte 35 Norte 0 -- -- 82
2018-09-02 23:00:00 25.9 12 Este 22 Este 0 -- -- 82
2018-09-02 22:00:00 26.1 14 Este 23 Este 0 -- -- 79
2018-09-02 21:00:00 26.5 15 Este 28 Este 0 -- -- 77
2018-09-02 20:00:00 27.2 19 Este 36 Este 0 -- -- 75
2018-09-02 19:00:00 27.1 30 Este 42 Este 0 -- -- 76
2018-09-02 18:00:00 26.7 29 Este 47 Este 0 -- -- 78
2018-09-02 17:00:00 26.9 37 Este 45 Este 0 -- -- 75
2018-09-02 16:00:00 27.9 29 Este 50 Este 0 -- -- 70
2018-09-02 15:00:00 27.8 35 Este 49 Este 0 -- -- 69
2018-09-02 14:00:00 28.2 34 Este 48 Este 0 -- -- 68
2018-09-02 13:00:00 28.4 24 Este 42 Este 0 -- -- 66
2018-09-02 12:00:00 28.2 21 Este 37 Este 0 -- -- 67
2018-09-02 11:00:00 28.2 17 Este 32 Este 0 -- -- 67
2018-09-02 10:00:00 27.4 4 Sudeste 26 Este 0 -- -- 66
2018-09-02 09:00:00 25.7 5 Norte 19 Este 0 -- -- 69
2018-09-02 08:00:00 24.7 6 Nordeste 13 Sudeste 0 -- -- 71
2018-09-02 07:00:00 25 10 Norte 14 Norte 0 -- -- 71
2018-09-02 06:00:00 25 7 Oeste 15 Noroeste 0 -- -- 76
2018-09-02 05:00:00 25.3 9 Noroeste 35 Este 0 -- -- 79
2018-09-02 04:00:00 25.5 6 Norte 29 Nordeste 0 -- -- 79
2018-09-02 03:00:00 25.5 9 Nordeste 27 Norte 0 -- -- 79
2018-09-02 02:00:00 25.6 12 Nordeste 34 Este 0 -- -- 79
2018-09-02 01:00:00 25.8 12 Nordeste 59 Este 0 -- -- 78
2018-09-02 00:00:00 25.8 37 Nordeste 60 Nordeste 0 -- -- 78
2018-09-01 23:00:00 25.9 39 Nordeste 55 Nordeste 0 -- -- 77
2018-09-01 22:00:00 25.9 34 Nordeste 53 Nordeste 0 -- -- 77
2018-09-01 21:00:00 26.1 38 Este 66 Este 0 -- -- 76
2018-09-01 20:00:00 26.6 47 Este 64 Este 0 -- -- 73
2018-09-01 19:00:00 27 44 Este 66 Este 0 -- -- 71
2018-09-01 18:00:00 27.4 48 Este 64 Este 0 -- -- 68
2018-09-01 17:00:00 27.8 42 Este 70 Este 0 -- -- 69
2018-09-01 16:00:00 28.5 44 Este 62 Este 0 -- -- 65
2018-09-01 15:00:00 28.9 45 Este 67 Este 0 -- -- 63
2018-09-01 14:00:00 28.8 49 Nordeste 73 Este 0 -- -- 63
2018-09-01 13:00:00 28.4 48 Este 77 Este 0 -- -- 65
2018-09-01 12:00:00 28.1 49 Este 73 Nordeste 0 -- -- 65
2018-09-01 11:00:00 27.9 35 Nordeste 68 Este 0 -- -- 66
2018-09-01 10:00:00 27.1 37 Nordeste 64 Este 0 -- -- 68
2018-09-01 09:00:00 26.3 27 Nordeste 49 Nordeste 0 -- -- 68
2018-09-01 08:00:00 25.7 10 Norte 36 Noroeste 0 -- -- 69
2018-09-01 07:00:00 25.7 15 Norte 41 Norte 0 -- -- 71
2018-09-01 06:00:00 25.4 13 Nordeste 34 Nordeste 0 -- -- 76
2018-09-01 05:00:00 25.6 12 Nordeste 37 Este 0 -- -- 77
2018-09-01 04:00:00 25.7 9 Nordeste 40 Este 0 -- -- 78
2018-09-01 03:00:00 25.8 9 Nordeste 46 Este 0 -- -- 79
2018-09-01 02:00:00 25.8 18 Nordeste 61 Este 0 -- -- 79
2018-09-01 01:00:00 26 31 Nordeste 55 Este 0 -- -- 78
2018-09-01 00:00:00 26.1 31 Nordeste 62 Nordeste 0 -- -- 77
2018-08-31 23:00:00 26.1 45 Nordeste 68 Nordeste 0 -- -- 76
2018-08-31 22:00:00 26.2 49 Nordeste 68 Nordeste 0 -- -- 76
2018-08-31 21:00:00 26.4 41 Este 53 Nordeste 0 -- -- 75
2018-08-31 20:00:00 26.7 38 Este 64 Nordeste 0 -- -- 74
2018-08-31 19:00:00 27.1 42 Este 60 Este 0 -- -- 72
2018-08-31 18:00:00 27.8 35 Este 58 Este 0 -- -- 68
2018-08-31 17:00:00 27.4 39 Este 64 Este 0 -- -- 68
2018-08-31 16:00:00 27.7 40 Este 68 Este 0 -- -- 68
2018-08-31 15:00:00 27.6 39 Este 67 Este 0 -- -- 70
2018-08-31 14:00:00 28.1 38 Este 68 Nordeste 0 -- -- 68
2018-08-31 13:00:00 28.4 30 Este 56 Sudeste 0 -- -- 67
2018-08-31 12:00:00 28.6 26 Este 49 Nordeste 0 -- -- 66
2018-08-31 11:00:00 28.1 26 Nordeste 47 Este 0 -- -- 66
2018-08-31 10:00:00 27.2 18 Nordeste 42 Nordeste 0 -- -- 70
2018-08-31 09:00:00 26.3 15 Nordeste 37 Nordeste 0 -- -- 72
2018-08-31 08:00:00 25.6 18 Nordeste 42 Nordeste 0 -- -- 71
2018-08-31 07:00:00 25.6 15 Nordeste 29 Nordeste 0 -- -- 73
2018-08-31 06:00:00 25.5 14 Nordeste 30 Norte 0 -- -- 75
2018-08-31 05:00:00 25.7 8 Nordeste 22 Este 0 -- -- 75
2018-08-31 04:00:00 25.9 8 Nordeste 33 Nordeste 0 -- -- 75
2018-08-31 03:00:00 26 13 Nordeste 29 Nordeste 0 -- -- 75
2018-08-31 02:00:00 26 15 Nordeste 36 Este 0 -- -- 74
2018-08-31 01:00:00 26.3 13 Nordeste 32 Este 0 -- -- 74
2018-08-31 00:00:00 26.4 12 Nordeste 56 Este 0 -- -- 72
2018-08-30 23:00:00 26.3 36 Este 62 Este 0 -- -- 70
2018-08-30 22:00:00 26.9 39 Este 60 Este 0 -- -- 60
2018-08-30 21:00:00 27.3 31 Este 62 Este 0 -- -- 56
2018-08-30 20:00:00 27.2 40 Este 58 Este 0 -- -- 63
2018-08-30 19:00:00 27.6 42 Este 65 Nordeste 0 -- -- 61
2018-08-30 18:00:00 27.8 41 Este 60 Este 0 -- -- 62
2018-08-30 17:00:00 28 34 Este 58 Nordeste 0 -- -- 66
2018-08-30 16:00:00 28.1 36 Este 63 Este 0 -- -- 66
2018-08-30 15:00:00 28.4 31 Este 61 Este 0 -- -- 65
2018-08-30 14:00:00 27.7 37 Este 59 Este 0 -- -- 72
2018-08-30 13:00:00 27.9 37 Este 66 Este 0 -- -- 72
2018-08-30 12:00:00 28.5 26 Este 44 Este 0 -- -- 69
2018-08-30 11:00:00 27.2 28 Este 45 Este 0 -- -- 74
2018-08-30 10:00:00 27.1 19 Este 39 Nordeste 0 -- -- 76
2018-08-30 09:00:00 26.3 17 Nordeste 42 Nordeste 0 -- -- 78
2018-08-30 08:00:00 25.8 20 Nordeste 40 Nordeste 0 -- -- 82
2018-08-30 07:00:00 25.7 23 Nordeste 40 Nordeste 0 -- -- 83
2018-08-30 06:00:00 25.6 15 Este 26 Este 0 -- -- 84
2018-08-30 05:00:00 25.6 12 Este 24 Sudeste 0 -- -- 80
2018-08-30 04:00:00 25.9 4 Noroeste 25 Norte 0 -- -- 71
2018-08-30 03:00:00 25.8 5 Norte 38 Norte 0 -- -- 73
2018-08-30 02:00:00 24.8 15 Noroeste 26 Norte 0 -- -- 83
2018-08-30 01:00:00 25.3 8 Oeste 15 Noroeste 0 -- -- 83
2018-08-30 00:00:00 25.5 4 Sudeste 14 Sudeste 0 -- -- 83
2018-08-29 23:00:00 25.8 5 Sudeste 11 Sudeste 0 -- -- 81
2018-08-29 22:00:00 26.4 9 Oeste 15 Oeste 0 -- -- 79
2018-08-29 21:00:00 26.7 7 Oeste 15 Oeste 0 -- -- 77
2018-08-29 20:00:00 27.3 12 Oeste 18 Oeste 0 -- -- 75
2018-08-29 19:00:00 27.6 12 Oeste 19 Oeste 0 -- -- 74
2018-08-29 18:00:00 28.1 10 Oeste 23 Noroeste 0 -- -- 73
2018-08-29 17:00:00 29.1 16 Oeste 21 Noroeste 0 -- -- 69
2018-08-29 16:00:00 29.7 6 Oeste 17 Oeste 0 -- -- 69
2018-08-29 15:00:00 29.1 5 Oeste 13 Oeste 0 -- -- 71
2018-08-29 14:00:00 28.4 7 Sur 13 Sur 0 -- -- 71
2018-08-29 13:00:00 29.7 5 Sur 9 Sudeste 0 -- -- 70
2018-08-29 12:00:00 29.6 5 Sur 10 Oeste 0 -- -- 72
2018-08-29 11:00:00 28.7 7 Oeste 13 Oeste 0 -- -- 73
2018-08-29 10:00:00 28.2 6 Oeste 10 Oeste 0 -- -- 75
2018-08-29 09:00:00 26.6 0 Calma 13 Norte 0 -- -- 75
2018-08-29 08:00:00 24.7 5 Noroeste 10 Oeste 0 -- -- 73
2018-08-29 07:00:00 25.5 8 Noroeste 22 Noroeste 0 -- -- 71
2018-08-29 06:00:00 25.2 15 Noroeste 23 Noroeste 0 -- -- 62
2018-08-29 05:00:00 26.2 0 Calma 4 Noroeste 0 -- -- 52
2018-08-29 04:00:00 26.8 0 Calma 12 Norte 0 -- -- 51
2018-08-29 03:00:00 27 5 Norte 8 Norte 0 -- -- 50
2018-08-29 02:00:00 26.9 4 Norte 8 Norte 0 -- -- 53
2018-08-29 01:00:00 26.6 2 Norte 6 Noroeste 0 -- -- 54
2018-08-29 00:00:00 26.8 3 Norte 5 Noroeste 0 -- -- 54
2018-08-28 23:00:00 26.9 4 Norte 9 Norte 0 -- -- 59
2018-08-28 22:00:00 27.6 3 Oeste 34 Nordeste 0 -- -- 66
2018-08-28 21:00:00 28.1 23 Nordeste 39 Este 0 -- -- 54
2018-08-28 20:00:00 28.5 19 Nordeste 50 Este 0 -- -- 55
2018-08-28 19:00:00 28.5 37 Este 60 Este 0 -- -- 54
2018-08-28 18:00:00 28.5 40 Este 57 Este 0 -- -- 66
2018-08-28 17:00:00 29.4 35 Este 54 Este 0 -- -- 64
2018-08-28 16:00:00 29.6 33 Este 56 Sudeste 0 -- -- 66
2018-08-28 15:00:00 30.4 33 Este 50 Este 0 -- -- 58
2018-08-28 14:00:00 29.8 35 Este 50 Este 0 -- -- 60
2018-08-28 13:00:00 30 32 Este 55 Este 0 -- -- 60
2018-08-28 12:00:00 29.8 24 Este 44 Sudeste 0 -- -- 62
2018-08-28 11:00:00 30.6 12 Este 30 Este 0 -- -- 53
2018-08-28 10:00:00 30.1 5 Noroeste 32 Nordeste 0 -- -- 48
2018-08-28 09:00:00 27.6 4 Sudeste 15 Nordeste 0 -- -- 53
2018-08-28 08:00:00 27.5 9 Noroeste 56 Nordeste 0 -- -- 53
2018-08-28 07:00:00 28 40 Nordeste 66 Nordeste 0 -- -- 51
2018-08-28 06:00:00 28 7 Nordeste 33 Nordeste 0 -- -- 47
2018-08-28 05:00:00 26.8 15 Norte 30 Nordeste 0 -- -- 65
2018-08-28 04:00:00 26.5 12 Norte 25 Noroeste 0 -- -- 71
2018-08-28 03:00:00 27.3 9 Nordeste 50 Este 0 -- -- 63
2018-08-28 02:00:00 27.3 35 Nordeste 63 Este 0 -- -- 67
2018-08-28 01:00:00 27.1 36 Este 54 Este 0 -- -- 63
2018-08-28 00:00:00 27 14 Norte 33 Este 0 -- -- 64
2018-08-27 23:00:00 27.3 8 Norte 23 Este 0 -- -- 63
2018-08-27 22:00:00 28.1 24 Norte 76 Nordeste 0 -- -- 55
2018-08-27 21:00:00 27.6 50 Nordeste 70 Nordeste 0 -- -- 63
2018-08-27 20:00:00 27.8 50 Nordeste 66 Nordeste 0 -- -- 65
2018-08-27 19:00:00 29 41 Nordeste 61 Este 0 -- -- 58
2018-08-27 18:00:00 29.2 42 Este 66 Nordeste 0 -- -- 57
2018-08-27 17:00:00 28.8 43 Este 68 Este 0 -- -- 67
2018-08-27 16:00:00 29.1 41 Este 60 Este 0 -- -- 66
2018-08-27 15:00:00 28.9 39 Este 58 Este 0 -- -- 66
2018-08-27 14:00:00 28.7 42 Este 60 Este 0 -- -- 68
2018-08-27 13:00:00 28.3 42 Este 81 Este 0 -- -- 69
2018-08-27 12:00:00 28.2 32 Este 51 Nordeste 0 -- -- 71
2018-08-27 11:00:00 28.2 29 Este 44 Este 0 -- -- 72
2018-08-27 10:00:00 27.8 19 Este 31 Este 0 -- -- 74
2018-08-27 09:00:00 26.6 9 Este 23 Este 0 -- -- 78
2018-08-27 08:00:00 25.6 8 Nordeste 25 Nordeste 0 -- -- 78
2018-08-27 07:00:00 25.5 4 Noroeste 23 Este 0 -- -- 77
2018-08-27 06:00:00 25.4 3 Oeste 12 Norte 0 -- -- 78
2018-08-27 05:00:00 25.6 3 Norte 13 Nordeste 0 -- -- 78
2018-08-27 04:00:00 25.8 4 Nordeste 12 Nordeste 0 -- -- 76
2018-08-27 03:00:00 25.8 4 Norte 8 Norte 0 -- -- 74
2018-08-27 02:00:00 26.2 5 Noroeste 11 Noroeste 0 -- -- 72
2018-08-27 01:00:00 26.4 3 Oeste 13 Este 0 -- -- 71
2018-08-27 00:00:00 26.4 3 Norte 12 Sudeste 0 -- -- 69
2018-08-26 23:00:00 26.6 5 Nordeste 26 Este 0 -- -- 65
2018-08-26 22:00:00 26.8 11 Este 23 Nordeste 0 -- -- 66
2018-08-26 21:00:00 27 17 Este 36 Nordeste 0 -- -- 63
2018-08-26 20:00:00 27.3 29 Este 42 Este 0 -- -- 61
2018-08-26 19:00:00 27.7 27 Este 44 Este 0 -- -- 66
2018-08-26 18:00:00 27.4 27 Este 50 Este 0 -- -- 72
2018-08-26 17:00:00 28.6 28 Este 51 Este 0 -- -- 65
2018-08-26 16:00:00 28.3 36 Este 64 Este 0 -- -- 68
2018-08-26 15:00:00 28.5 40 Este 62 Nordeste 0 -- -- 68
2018-08-26 14:00:00 28.8 40 Este 62 Este 0 -- -- 67
2018-08-26 13:00:00 29.7 36 Este 55 Este 0 -- -- 61
2018-08-26 12:00:00 31.1 28 Este 47 Este 0 -- -- 50
2018-08-26 11:00:00 31.1 24 Nordeste 42 Nordeste 0 -- -- 43
2018-08-26 10:00:00 29.4 16 Nordeste 38 Norte 0 -- -- 50
2018-08-26 09:00:00 27.7 26 Norte 49 Este 0 -- -- 56
2018-08-26 08:00:00 26.5 26 Nordeste 44 Nordeste 0 -- -- 70
2018-08-26 07:00:00 26.2 27 Nordeste 49 Nordeste 0 -- -- 72
2018-08-26 06:00:00 26.5 24 Nordeste 40 Nordeste 0 -- -- 71
2018-08-26 05:00:00 26.8 14 Nordeste 36 Nordeste 0 -- -- 59
2018-08-26 04:00:00 26 2 Norte 8 Este 0 -- -- 58
2018-08-26 03:00:00 26.1 3 Oeste 11 Nordeste 0 -- -- 67
2018-08-26 02:00:00 26.2 3 Oeste 23 Este 0 -- -- 67
2018-08-26 01:00:00 26.4 8 Nordeste 17 Este 0 -- -- 70
2018-08-26 00:00:00 26.3 5 Nordeste 13 Este 0 -- -- 70
2018-08-25 23:00:00 26.8 10 Este 14 Este 0 -- -- 72
2018-08-25 22:00:00 27.2 2 Oeste 5 Noroeste 0 -- -- 70
2018-08-25 21:00:00 27.8 2 Sur 5 Oeste 0 -- -- 68
2018-08-25 20:00:00 28.7 3 Noroeste 6 Oeste 0 -- -- 66
2018-08-25 19:00:00 29.4 4 Oeste 8 Oeste 0 -- -- 63
2018-08-25 18:00:00 29.9 3 Oeste 10 Oeste 0 -- -- 60
2018-08-25 17:00:00 30.7 4 Oeste 8 Oeste 0 -- -- 54
2018-08-25 16:00:00 30.9 5 Noroeste 10 Oeste 0 -- -- 50
2018-08-25 15:00:00 31.4 7 Oeste 15 Noroeste 0 -- -- 40
2018-08-25 14:00:00 31 8 Oeste 14 Noroeste 0 -- -- 41
2018-08-25 13:00:00 29.9 8 Oeste 13 Noroeste 0 -- -- 46
2018-08-25 12:00:00 28.4 3 Noroeste 6 Oeste 0 -- -- 68
2018-08-25 11:00:00 29.4 4 Oeste 21 Noroeste 0 -- -- 64
2018-08-25 10:00:00 27.4 11 Oeste 31 Noroeste 0 -- -- 58
2018-08-25 09:00:00 25.4 18 Noroeste 28 Noroeste 0 -- -- 84
2018-08-25 08:00:00 25.1 12 Oeste 20 Noroeste 0 -- -- 83
2018-08-25 07:00:00 25.1 9 Oeste 19 Noroeste 0 -- -- 80
2018-08-25 06:00:00 25.3 9 Oeste 27 Noroeste 0 -- -- 76
2018-08-25 05:00:00 24.7 18 Noroeste 28 Noroeste 0 -- -- 77
2018-08-25 04:00:00 25.3 14 Noroeste 23 Noroeste 0 -- -- 79
2018-08-25 03:00:00 25.5 9 Oeste 17 Oeste 0 -- -- 78
2018-08-25 02:00:00 26.4 6 Oeste 15 Oeste 0 -- -- 73
2018-08-25 01:00:00 26.4 12 Oeste 17 Oeste 0 -- -- 66
2018-08-25 00:00:00 27.3 11 Oeste 26 Noroeste 0 -- -- 49
2018-08-24 23:00:00 27.1 17 Oeste 25 Noroeste 0 -- -- 50
2018-08-24 22:00:00 26.7 12 Oeste 22 Noroeste 0 -- -- 50
2018-08-24 21:00:00 26.8 13 Oeste 27 Oeste 0 -- -- 52
2018-08-24 20:00:00 26.4 13 Oeste 23 Noroeste 0 -- -- 64
2018-08-24 19:00:00 27.5 11 Oeste 19 Noroeste 0 -- -- 72
2018-08-24 18:00:00 28.2 10 Oeste 18 Oeste 0 -- -- 70
2018-08-24 17:00:00 29.4 6 Oeste 14 Oeste 0 -- -- 66
2018-08-24 16:00:00 29.6 6 Oeste 14 Sudoeste 0 -- -- 65
2018-08-24 15:00:00 29.7 5 Oeste 10 Sudoeste 0 -- -- 63
2018-08-24 14:00:00 29.6 5 Sudoeste 10 Sudoeste 0 -- -- 68
2018-08-24 13:00:00 28.8 4 Sudoeste 10 Sudoeste 0 -- -- 72
2018-08-24 12:00:00 28.6 5 Oeste 14 Noroeste 0 -- -- 76
2018-08-24 11:00:00 27.6 11 Oeste 19 Noroeste 0 -- -- 80
2018-08-24 10:00:00 26.4 12 Oeste 23 Oeste 0 -- -- 84
2018-08-24 09:00:00 25.4 12 Oeste 23 Noroeste 0 -- -- 86
2018-08-24 08:00:00 24.7 13 Oeste 18 Noroeste 0 -- -- 85
2018-08-24 07:00:00 24.8 10 Oeste 19 Oeste 0 -- -- 84
2018-08-24 06:00:00 24.9 16 Oeste 20 Oeste 0 -- -- 83
2018-08-24 05:00:00 25.3 10 Oeste 21 Noroeste 0 -- -- 81
2018-08-24 04:00:00 25.8 10 Oeste 21 Oeste 0 -- -- 76
2018-08-24 03:00:00 25.8 9 Oeste 15 Noroeste 0 -- -- 65
2018-08-24 02:00:00 25.7 6 Norte 10 Este 0 -- -- 62
2018-08-24 01:00:00 26 6 Noroeste 24 Norte 0 -- -- 60
2018-08-24 00:00:00 25.5 9 Noroeste 24 Noroeste 0 -- -- 72